createdAt,value
2018-03-24T00:00:21.850Z,18.87
2018-03-24T00:02:49.002Z,18.30
2018-03-24T00:05:15.434Z,18.15
2018-03-24T00:07:41.833Z,19.12
2018-03-24T00:10:08.971Z,18.70
2018-03-24T00:12:35.398Z,17.98
2018-03-24T00:15:01.833Z,18.40
2018-03-24T00:17:28.207Z,19.37
2018-03-24T00:19:54.627Z,19.92
2018-03-24T00:22:21.795Z,19.33
2018-03-24T00:24:48.199Z,18.33
2018-03-24T00:27:14.586Z,18.30
2018-03-24T00:29:41.045Z,18.55
2018-03-24T00:32:07.432Z,18.80
2018-03-24T00:34:34.652Z,18.80
2018-03-24T00:37:01.049Z,16.95
2018-03-24T00:39:28.198Z,18.00
2018-03-24T00:41:54.586Z,17.17
2018-03-24T00:44:21.730Z,19.10
2018-03-24T00:46:49.752Z,20.33
2018-03-24T00:49:16.924Z,18.67
2018-03-24T00:51:44.093Z,18.42
2018-03-24T00:54:11.234Z,18.20
2018-03-24T00:56:37.724Z,18.17
2018-03-24T00:59:04.879Z,16.95
2018-03-24T01:01:32.091Z,19.77
2018-03-24T01:03:59.162Z,18.70
2018-03-24T01:06:25.599Z,18.80
2018-03-24T01:08:52.051Z,18.27
2018-03-24T01:11:19.228Z,18.37
2018-03-24T01:13:46.275Z,18.08
2018-03-24T01:16:13.430Z,17.35
2018-03-24T01:18:40.615Z,18.42
2018-03-24T01:21:07.031Z,17.73
2018-03-24T01:23:33.418Z,17.37
2018-03-24T01:26:01.298Z,17.50
2018-03-24T01:28:27.815Z,16.52
2018-03-24T01:30:54.261Z,17.67
2018-03-24T01:33:20.661Z,17.27
2018-03-24T01:35:47.103Z,17.33
2018-03-24T01:38:13.618Z,16.35
2018-03-24T01:40:40.747Z,17.35
2018-03-24T01:43:07.205Z,17.05
2018-03-24T01:45:33.615Z,19.05
2018-03-24T01:48:00.156Z,18.80
2018-03-24T01:50:27.329Z,16.75
2018-03-24T01:52:54.482Z,17.00
2018-03-24T01:55:20.897Z,17.45
2018-03-24T01:57:47.287Z,19.35
2018-03-24T02:00:13.709Z,17.55
2018-03-24T02:02:40.225Z,15.90
2018-03-24T02:05:07.375Z,16.12
2018-03-24T02:07:33.779Z,17.73
2018-03-24T02:10:00.296Z,17.00
2018-03-24T02:12:27.436Z,17.40
2018-03-24T02:14:53.848Z,17.20
2018-03-24T02:17:20.265Z,16.90
2018-03-24T02:19:47.540Z,18.08
2018-03-24T02:22:13.938Z,17.10
2018-03-24T02:27:35.572Z,16.87
2018-03-24T02:30:02.832Z,15.40
2018-03-24T02:32:30.574Z,16.50
2018-03-24T02:34:56.970Z,16.98
2018-03-24T02:37:23.374Z,15.00
2018-03-24T02:39:49.779Z,15.48
2018-03-24T02:42:16.942Z,15.70
2018-03-24T02:44:43.372Z,16.48
2018-03-24T02:47:09.758Z,15.95
2018-03-24T02:49:36.902Z,14.52
2018-03-24T02:52:03.321Z,15.45
2018-03-24T02:54:29.865Z,16.73
2018-03-24T02:56:57.019Z,15.05
2018-03-24T02:59:24.161Z,16.80
2018-03-24T03:01:50.597Z,16.35
2018-03-24T03:04:16.998Z,15.77
2018-03-24T03:06:43.393Z,15.18
2018-03-24T03:09:09.824Z,15.45
2018-03-24T03:11:36.992Z,15.38
2018-03-24T03:14:04.231Z,15.98
2018-03-24T03:16:30.661Z,16.50
2018-03-24T03:18:57.190Z,15.63
2018-03-24T03:21:23.729Z,16.30
2018-03-24T03:23:50.901Z,15.80
2018-03-24T03:26:17.338Z,15.15
2018-03-24T03:28:43.753Z,16.87
2018-03-24T03:31:24.203Z,15.02
2018-03-24T03:33:50.757Z,15.82
2018-03-24T03:36:17.194Z,15.52
2018-03-24T03:38:44.385Z,16.45
2018-03-24T03:41:10.789Z,16.05
2018-03-24T03:43:37.191Z,17.45
2018-03-24T03:46:04.427Z,15.80
2018-03-24T03:48:30.850Z,15.77
2018-03-24T03:50:57.275Z,15.48
2018-03-24T03:53:23.699Z,15.57
2018-03-24T03:55:51.732Z,14.10
2018-03-24T03:58:18.122Z,16.42
2018-03-24T04:00:44.543Z,14.98
2018-03-24T04:03:10.976Z,15.18
2018-03-24T04:05:37.455Z,14.85
2018-03-24T04:08:03.922Z,15.20
2018-03-24T04:10:30.336Z,14.20
2018-03-24T04:12:56.784Z,14.77
2018-03-24T04:15:23.247Z,15.00
2018-03-24T04:17:49.655Z,16.15
2018-03-24T04:20:16.069Z,15.23
2018-03-24T04:22:42.467Z,14.68
2018-03-24T04:25:08.889Z,15.38
2018-03-24T04:27:36.047Z,15.80
2018-03-24T04:30:02.523Z,15.82
2018-03-24T04:32:29.691Z,14.15
2018-03-24T04:34:56.087Z,14.00
2018-03-24T04:37:22.498Z,14.93
2018-03-24T04:39:49.653Z,13.73
2018-03-24T04:42:16.067Z,13.57
2018-03-24T04:44:42.477Z,14.93
2018-03-24T04:47:09.621Z,14.65
2018-03-24T04:49:36.116Z,14.32
2018-03-24T04:52:03.392Z,14.65
2018-03-24T04:54:30.570Z,13.90
2018-03-24T04:56:56.972Z,14.38
2018-03-24T04:59:23.367Z,14.25
2018-03-24T05:01:50.526Z,15.07
2018-03-24T05:04:17.701Z,13.95
2018-03-24T05:06:44.849Z,12.73
2018-03-24T05:09:11.373Z,13.40
2018-03-24T05:11:37.857Z,13.30
2018-03-24T05:14:04.371Z,12.85
2018-03-24T05:16:30.779Z,13.48
2018-03-24T05:18:57.793Z,13.00
2018-03-24T05:21:24.215Z,12.10
2018-03-24T05:23:50.629Z,12.88
2018-03-24T05:26:17.092Z,14.32
2018-03-24T05:28:43.613Z,15.40
2018-03-24T05:31:10.807Z,16.95
2018-03-24T05:33:37.247Z,18.87
2018-03-24T05:36:03.740Z,20.83
2018-03-24T05:38:30.461Z,17.00
2018-03-24T05:40:57.622Z,16.58
2018-03-24T05:43:24.782Z,15.38
2018-03-24T05:45:51.208Z,14.87
2018-03-24T05:48:17.628Z,15.57
2018-03-24T05:50:44.088Z,12.90
2018-03-24T05:53:10.628Z,15.10
2018-03-24T05:55:37.772Z,12.85
2018-03-24T05:58:04.984Z,12.55
2018-03-24T06:00:31.473Z,11.32
2018-03-24T06:02:57.888Z,11.98
2018-03-24T06:05:24.341Z,11.43
2018-03-24T06:07:51.501Z,11.20
2018-03-24T06:10:18.649Z,11.18
2018-03-24T06:12:45.135Z,12.52
2018-03-24T06:15:12.420Z,11.63
2018-03-24T06:17:38.854Z,11.05
2018-03-24T06:20:05.251Z,11.57
2018-03-24T06:22:31.721Z,11.52
2018-03-24T06:24:58.114Z,13.25
2018-03-24T06:27:24.596Z,11.40
2018-03-24T06:29:51.855Z,11.55
2018-03-24T06:32:19.144Z,11.25
2018-03-24T06:34:46.434Z,11.95
2018-03-24T06:37:12.912Z,13.20
2018-03-24T06:39:39.337Z,17.12
2018-03-24T06:42:05.788Z,15.90
2018-03-24T06:44:32.955Z,18.20
2018-03-24T06:47:00.162Z,17.80
2018-03-24T06:49:26.693Z,16.50
2018-03-24T06:51:53.138Z,15.70
2018-03-24T06:54:19.582Z,17.73
2018-03-24T06:56:46.833Z,16.80
2018-03-24T06:59:13.443Z,17.33
2018-03-24T07:01:39.996Z,18.57
2018-03-24T07:04:06.554Z,17.70
2018-03-24T07:06:32.967Z,17.87
2018-03-24T07:09:00.128Z,18.27
2018-03-24T07:11:26.561Z,17.50
2018-03-24T07:13:52.975Z,18.53
2018-03-24T07:16:20.045Z,19.70
2018-03-24T07:18:46.723Z,18.90
2018-03-24T07:21:13.955Z,19.40
2018-03-24T07:23:40.454Z,20.97
2018-03-24T07:26:07.650Z,22.30
2018-03-24T07:28:34.091Z,20.67
2018-03-24T07:31:01.108Z,21.33
2018-03-24T07:33:27.611Z,22.03
2018-03-24T07:35:55.088Z,20.90
2018-03-24T07:38:22.270Z,21.33
2018-03-24T07:40:48.925Z,21.20
2018-03-24T07:43:15.426Z,20.80
2018-03-24T07:45:41.935Z,19.40
2018-03-24T07:48:09.218Z,21.60
2018-03-24T07:50:35.710Z,21.50
2018-03-24T07:53:02.225Z,20.57
2018-03-24T07:55:30.091Z,22.37
2018-03-24T07:57:56.544Z,21.00
2018-03-24T08:00:23.133Z,20.50
2018-03-24T08:02:50.292Z,21.20
2018-03-24T08:05:18.398Z,24.00
2018-03-24T08:07:44.812Z,20.40
2018-03-24T08:10:11.308Z,22.07
2018-03-24T08:12:38.465Z,20.57
2018-03-24T08:15:05.622Z,20.13
2018-03-24T08:17:32.207Z,21.30
2018-03-24T08:19:59.378Z,20.30
2018-03-24T08:22:26.558Z,19.70
2018-03-24T08:24:53.928Z,18.40
2018-03-24T08:27:21.852Z,17.47
2018-03-24T08:29:48.385Z,17.30
2018-03-24T08:32:14.760Z,16.50
2018-03-24T08:34:41.225Z,18.37
2018-03-24T08:37:07.679Z,17.37
2018-03-24T08:39:34.147Z,17.83
2018-03-24T08:42:00.990Z,17.57
2018-03-24T08:44:27.511Z,16.57
2018-03-24T08:46:54.901Z,15.43
2018-03-24T08:49:21.461Z,15.27
2018-03-24T08:51:48.645Z,16.10
2018-03-24T08:54:15.109Z,14.80
2018-03-24T08:56:41.709Z,13.20
2018-03-24T08:59:08.891Z,13.60
2018-03-24T09:01:35.327Z,11.73
2018-03-24T09:04:02.651Z,11.67
2018-03-24T09:06:29.924Z,10.90
2018-03-24T09:08:57.146Z,12.90
2018-03-24T09:11:23.659Z,10.67
2018-03-24T09:13:50.078Z,10.50
2018-03-24T09:16:16.570Z,10.97
2018-03-24T09:18:43.847Z,10.30
2018-03-24T09:21:11.028Z,9.70
2018-03-24T09:23:37.795Z,11.20
2018-03-24T09:26:04.296Z,11.40
2018-03-24T09:28:30.726Z,11.50
2018-03-24T09:30:57.190Z,10.27
2018-03-24T09:33:24.013Z,11.15
2018-03-24T09:35:50.463Z,10.80
2018-03-24T09:38:17.929Z,10.98
2018-03-24T09:40:45.223Z,12.00
2018-03-24T09:43:12.923Z,12.20
2018-03-24T09:45:39.342Z,16.87
2018-03-24T09:48:06.537Z,11.43
2018-03-24T09:50:33.757Z,11.35
2018-03-24T09:53:00.181Z,11.73
2018-03-24T09:55:26.723Z,11.95
2018-03-24T09:57:53.889Z,12.07
2018-03-24T10:00:21.065Z,12.43
2018-03-24T10:02:48.255Z,14.77
2018-03-24T10:05:14.739Z,13.73
2018-03-24T10:07:42.236Z,12.27
2018-03-24T10:10:08.678Z,13.40
2018-03-24T10:12:35.189Z,13.38
2018-03-24T10:15:02.475Z,12.65
2018-03-24T10:17:28.902Z,12.80
2018-03-24T10:19:55.310Z,13.32
2018-03-24T10:22:43.482Z,11.65
2018-03-24T10:25:09.920Z,11.80
2018-03-24T10:27:36.363Z,12.30
2018-03-24T10:30:02.902Z,12.40
2018-03-24T10:32:33.959Z,12.43
2018-03-24T10:35:05.434Z,12.68
2018-03-24T10:37:31.907Z,13.40
2018-03-24T10:39:58.397Z,13.30
2018-03-24T10:42:25.243Z,13.90
2018-03-24T10:44:59.825Z,12.20
2018-03-24T10:47:26.281Z,12.77
2018-03-24T10:49:54.145Z,13.77
2018-03-24T10:52:22.180Z,13.15
2018-03-24T10:54:48.741Z,13.25
2018-03-24T10:57:15.455Z,13.80
2018-03-24T10:59:42.612Z,13.88
2018-03-24T11:02:09.216Z,12.32
2018-03-24T11:04:36.896Z,12.85
2018-03-24T11:07:04.076Z,13.90
2018-03-24T11:09:30.998Z,13.30
2018-03-24T11:11:57.472Z,14.87
2018-03-24T11:14:24.766Z,15.35
2018-03-24T11:16:52.043Z,15.02
2018-03-24T11:19:18.447Z,13.48
2018-03-24T11:21:44.872Z,15.02
2018-03-24T11:24:12.301Z,14.10
2018-03-24T11:26:38.717Z,13.82
2018-03-24T11:29:05.345Z,13.88
2018-03-24T11:31:32.517Z,14.48
2018-03-24T11:34:00.255Z,14.13
2018-03-24T11:36:27.538Z,13.48
2018-03-24T11:38:57.239Z,13.20
2018-03-24T11:41:23.802Z,12.40
2018-03-24T11:43:51.556Z,14.10
2018-03-24T11:46:18.236Z,14.63
2018-03-24T11:48:44.643Z,14.30
2018-03-24T11:51:11.052Z,15.18
2018-03-24T11:53:44.716Z,14.05
2018-03-24T11:56:12.255Z,15.77
2018-03-24T11:58:38.924Z,15.65
2018-03-24T12:01:05.700Z,16.35
2018-03-24T12:03:32.916Z,15.82
2018-03-24T12:06:01.457Z,16.10
2018-03-24T12:08:30.520Z,16.35
2018-03-24T12:10:57.423Z,17.25
2018-03-24T12:13:24.291Z,17.35
2018-03-24T12:15:50.825Z,17.20
2018-03-24T12:18:18.329Z,18.45
2018-03-24T12:20:44.861Z,18.87
2018-03-24T12:23:11.519Z,17.58
2018-03-24T12:25:38.961Z,16.37
2018-03-24T12:28:06.278Z,16.75
2018-03-24T12:30:33.186Z,17.85
2018-03-24T12:32:59.787Z,17.50
2018-03-24T12:35:28.756Z,16.10
2018-03-24T12:37:55.170Z,17.98
2018-03-24T12:40:21.661Z,16.83
2018-03-24T12:42:48.182Z,19.33
2018-03-24T12:45:14.743Z,18.30
2018-03-24T12:47:41.582Z,17.60
2018-03-24T12:50:09.110Z,19.75
2018-03-24T12:52:35.956Z,20.45
2018-03-24T12:55:03.202Z,20.85
2018-03-24T12:57:30.992Z,20.45
2018-03-24T12:59:58.291Z,21.17
2018-03-24T13:02:24.926Z,24.02
2018-03-24T13:04:52.215Z,22.60
2018-03-24T13:07:19.536Z,26.80
2018-03-24T13:09:47.189Z,23.12
2018-03-24T13:12:14.971Z,23.62
2018-03-24T13:14:41.451Z,25.48
2018-03-24T13:17:07.880Z,25.00
2018-03-24T13:19:34.486Z,32.45
2018-03-24T13:22:00.993Z,24.85
2018-03-24T13:24:27.484Z,24.05
2018-03-24T13:26:54.822Z,27.90
2018-03-24T13:29:22.966Z,24.48
2018-03-24T13:31:49.785Z,25.77
2018-03-24T13:34:16.754Z,23.60
2018-03-24T13:36:43.652Z,25.05
2018-03-24T13:39:10.084Z,24.35
2018-03-24T13:41:38.321Z,23.77
2018-03-24T13:44:04.969Z,24.77
2018-03-24T13:46:31.700Z,25.52
2018-03-24T13:48:58.460Z,26.17
2018-03-24T13:51:26.105Z,26.08
2018-03-24T13:53:53.428Z,24.40
2018-03-24T13:56:20.428Z,24.05
2018-03-24T13:58:47.072Z,24.90
2018-03-24T14:01:14.700Z,25.83
2018-03-24T14:03:42.158Z,27.02
2018-03-24T14:06:09.070Z,27.17
2018-03-24T14:08:36.491Z,26.95
2018-03-24T14:11:08.911Z,28.60
2018-03-24T14:13:37.645Z,28.87
2018-03-24T14:16:05.126Z,30.10
2018-03-24T14:18:31.568Z,30.00
2018-03-24T14:20:58.764Z,32.10
2018-03-24T14:23:25.822Z,29.92
2018-03-24T14:25:52.772Z,29.58
2018-03-24T14:28:20.373Z,29.35
2018-03-24T14:30:47.234Z,30.73
2018-03-24T14:33:14.720Z,30.27
2018-03-24T14:35:41.275Z,29.50
2018-03-24T14:38:09.199Z,29.85
2018-03-24T14:40:36.883Z,28.87
2018-03-24T14:43:03.840Z,28.73
2018-03-24T14:45:30.683Z,28.35
2018-03-24T14:47:58.340Z,30.30
2018-03-24T14:50:24.985Z,29.63
2018-03-24T14:52:52.163Z,28.73
2018-03-24T14:55:23.081Z,29.73
2018-03-24T14:57:50.635Z,29.92
2018-03-24T15:00:17.204Z,29.80
2018-03-24T15:02:44.182Z,29.20
2018-03-24T15:05:10.785Z,29.30
2018-03-24T15:07:37.229Z,28.05
2018-03-24T15:10:04.039Z,27.95
2018-03-24T15:12:31.628Z,26.92
2018-03-24T15:15:02.021Z,29.05
2018-03-24T15:17:30.373Z,25.95
2018-03-24T15:19:56.920Z,26.60
2018-03-24T15:22:25.415Z,26.05
2018-03-24T15:24:51.944Z,27.83
2018-03-24T15:27:19.147Z,27.37
2018-03-24T15:29:58.701Z,27.77
2018-03-24T15:32:40.816Z,26.70
2018-03-24T15:35:21.588Z,28.10
2018-03-24T15:37:51.513Z,27.02
2018-03-24T15:40:19.807Z,25.90
2018-03-24T15:42:47.513Z,25.90
2018-03-24T15:45:13.961Z,26.58
2018-03-24T15:47:41.328Z,25.95
2018-03-24T15:50:07.840Z,25.62
2018-03-24T15:52:34.314Z,26.70
2018-03-24T15:55:00.899Z,27.05
2018-03-24T15:57:28.218Z,25.23
2018-03-24T15:59:54.654Z,22.95
2018-03-24T16:02:21.784Z,24.00
2018-03-24T16:04:48.938Z,22.87
2018-03-24T16:07:15.492Z,23.45
2018-03-24T16:09:42.706Z,25.62
2018-03-24T16:12:09.243Z,24.08
2018-03-24T16:14:36.539Z,23.67
2018-03-24T16:17:03.025Z,22.85
2018-03-24T16:19:29.502Z,24.70
2018-03-24T16:21:56.117Z,22.50
2018-03-24T16:24:22.610Z,26.12
2018-03-24T16:26:49.040Z,23.95
2018-03-24T16:29:15.586Z,23.65
2018-03-24T16:31:44.123Z,26.48
2018-03-24T16:34:11.382Z,25.60
2018-03-24T16:36:37.816Z,35.38
2018-03-24T16:39:05.093Z,25.67
2018-03-24T16:41:31.649Z,26.42
2018-03-24T16:43:58.073Z,59.78
2018-03-24T16:46:24.549Z,34.13
2018-03-24T16:48:51.719Z,40.38
2018-03-24T16:51:19.009Z,34.33
2018-03-24T16:53:46.191Z,40.70
2018-03-24T16:56:12.636Z,30.75
2018-03-24T16:58:39.065Z,23.15
2018-03-24T17:01:06.283Z,22.05
2018-03-24T17:03:32.839Z,25.80
2018-03-24T17:05:59.291Z,20.80
2018-03-24T17:08:25.742Z,20.35
2018-03-24T17:10:52.178Z,18.50
2018-03-24T17:13:19.337Z,19.60
2018-03-24T17:15:45.792Z,26.58
2018-03-24T17:18:12.384Z,20.45
2018-03-24T17:20:38.850Z,19.12
2018-03-24T17:23:05.398Z,19.77
2018-03-24T17:25:32.669Z,19.90
2018-03-24T17:27:59.850Z,22.23
2018-03-24T17:30:26.996Z,20.58
2018-03-24T17:32:54.186Z,19.62
2018-03-24T17:35:21.564Z,20.42
2018-03-24T17:37:49.970Z,20.37
2018-03-24T17:40:16.523Z,31.98
2018-03-24T17:42:43.724Z,40.92
2018-03-24T17:45:10.254Z,32.13
2018-03-24T17:47:36.812Z,23.48
2018-03-24T17:50:03.372Z,23.65
2018-03-24T17:52:29.869Z,20.35
2018-03-24T17:54:56.383Z,22.58
2018-03-24T17:57:23.613Z,23.52
2018-03-24T17:59:50.523Z,20.55
2018-03-24T18:02:18.104Z,23.25
2018-03-24T18:04:45.378Z,20.75
2018-03-24T18:07:11.841Z,22.05
2018-03-24T18:09:38.403Z,20.92
2018-03-24T18:12:04.950Z,19.08
2018-03-24T18:14:32.101Z,19.40
2018-03-24T18:16:58.521Z,28.58
2018-03-24T18:19:24.989Z,25.45
2018-03-24T18:21:52.160Z,31.12
2018-03-24T18:24:18.652Z,22.62
2018-03-24T18:26:45.813Z,22.77
2018-03-24T18:29:12.400Z,20.42
2018-03-24T18:31:39.610Z,17.90
2018-03-24T18:34:06.577Z,19.85
2018-03-24T18:36:33.050Z,19.23
2018-03-24T18:38:59.448Z,20.05
2018-03-24T18:41:26.655Z,22.52
2018-03-24T18:43:53.157Z,21.48
2018-03-24T18:46:19.607Z,21.00
2018-03-24T18:48:46.038Z,18.08
2018-03-24T18:51:12.838Z,18.02
2018-03-24T18:53:39.865Z,21.10
2018-03-24T18:56:06.482Z,19.20
2018-03-24T18:58:33.348Z,18.60
2018-03-24T19:00:59.780Z,19.33
2018-03-24T19:03:27.697Z,19.65
2018-03-24T19:05:54.258Z,17.17
2018-03-24T19:08:21.218Z,18.98
2018-03-24T19:10:47.678Z,18.42
2018-03-24T19:13:14.951Z,18.62
2018-03-24T19:15:42.200Z,20.15
2018-03-24T19:18:08.786Z,19.70
2018-03-24T19:20:35.554Z,18.98
2018-03-24T19:23:02.311Z,18.15
2018-03-24T19:25:28.951Z,19.58
2018-03-24T19:27:55.376Z,19.30
2018-03-24T19:30:21.814Z,21.05
2018-03-24T19:32:48.341Z,20.00
2018-03-24T19:35:15.075Z,21.23
2018-03-24T19:37:41.620Z,19.40
2018-03-24T19:40:08.119Z,20.33
2018-03-24T19:42:34.614Z,18.73
2018-03-24T19:45:01.000Z,20.60
2018-03-24T19:47:27.466Z,20.75
2018-03-24T19:49:54.758Z,19.52
2018-03-24T19:52:22.084Z,19.75
2018-03-24T19:54:48.531Z,20.17
2018-03-24T19:57:15.954Z,21.27
2018-03-24T19:59:43.173Z,19.33
2018-03-24T20:02:09.683Z,20.65
2018-03-24T20:04:38.029Z,18.95
2018-03-24T20:07:04.749Z,19.17
2018-03-24T20:09:32.037Z,19.33
2018-03-24T20:11:59.260Z,21.70
2018-03-24T20:14:25.735Z,21.02
2018-03-24T20:16:53.244Z,20.92
2018-03-24T20:19:20.523Z,21.40
2018-03-24T20:21:47.004Z,20.75
2018-03-24T20:24:13.944Z,20.75
2018-03-24T20:26:40.507Z,20.12
2018-03-24T20:29:06.971Z,20.98
2018-03-24T20:31:33.479Z,20.33
2018-03-24T20:33:59.909Z,21.62
2018-03-24T20:36:26.427Z,20.62
2018-03-24T20:38:53.704Z,22.50
2018-03-24T20:41:20.942Z,19.73
2018-03-24T20:43:47.445Z,23.15
2018-03-24T20:46:13.994Z,20.77
2018-03-24T20:48:41.163Z,22.48
2018-03-24T20:51:08.351Z,22.58
2018-03-24T20:53:35.000Z,22.20
2018-03-24T20:56:02.480Z,23.67
2018-03-24T20:58:31.187Z,21.20
2018-03-24T21:00:58.078Z,22.42
2018-03-24T21:03:24.782Z,22.55
2018-03-24T21:05:51.678Z,21.40
2018-03-24T21:08:18.978Z,21.02
2018-03-24T21:10:46.338Z,21.65
2018-03-24T21:13:12.992Z,20.30
2018-03-24T21:15:39.491Z,22.00
2018-03-24T21:18:05.935Z,22.80
2018-03-24T21:20:32.531Z,21.98
2018-03-24T21:23:00.349Z,21.83
2018-03-24T21:25:27.507Z,22.77
2018-03-24T21:27:54.134Z,22.77
2018-03-24T21:30:20.742Z,22.52
2018-03-24T21:32:47.941Z,22.37
2018-03-24T21:35:14.577Z,23.12
2018-03-24T21:37:41.134Z,23.15
2018-03-24T21:40:08.394Z,23.15
2018-03-24T21:42:39.201Z,25.92
2018-03-24T21:45:05.718Z,25.80
2018-03-24T21:47:32.156Z,23.75
2018-03-24T21:49:59.450Z,25.75
2018-03-24T21:52:26.418Z,26.05
2018-03-24T21:54:53.066Z,25.10
2018-03-24T21:57:20.351Z,26.50
2018-03-24T21:59:47.647Z,23.45
2018-03-24T22:02:14.286Z,23.20
2018-03-24T22:04:41.478Z,24.52
2018-03-24T22:07:08.017Z,25.17
2018-03-24T22:09:35.292Z,27.23
2018-03-24T22:12:02.545Z,27.42
2018-03-24T22:14:28.997Z,26.40
2018-03-24T22:16:55.951Z,25.48
2018-03-24T22:19:22.368Z,24.92
2018-03-24T22:21:48.820Z,24.30
2018-03-24T22:24:15.277Z,25.88
2018-03-24T22:26:41.685Z,24.75
2018-03-24T22:29:08.130Z,25.23
2018-03-24T22:31:34.583Z,24.98
2018-03-24T22:34:01.041Z,24.70
2018-03-24T22:36:27.448Z,24.58
2018-03-24T22:38:53.907Z,25.20
2018-03-24T22:41:20.368Z,25.70
2018-03-24T22:43:46.808Z,26.45
2018-03-24T22:46:14.034Z,27.20
2018-03-24T22:48:40.460Z,26.65
2018-03-24T22:51:06.923Z,25.60
2018-03-24T22:53:33.976Z,25.35
2018-03-24T22:56:00.418Z,25.58
2018-03-24T22:58:27.567Z,24.42
2018-03-24T23:00:54.147Z,23.65
2018-03-24T23:03:21.333Z,24.37
2018-03-24T23:05:47.734Z,25.20
2018-03-24T23:08:15.661Z,26.05
2018-03-24T23:10:42.812Z,25.70
2018-03-24T23:13:09.236Z,25.00
2018-03-24T23:15:35.660Z,24.25
2018-03-24T23:18:02.089Z,25.20
2018-03-24T23:20:29.244Z,25.75
2018-03-24T23:22:55.782Z,24.10
2018-03-24T23:25:22.189Z,24.17
2018-03-24T23:27:49.352Z,24.90
2018-03-24T23:30:16.574Z,25.48
2018-03-24T23:32:43.001Z,25.50
2018-03-24T23:35:09.477Z,24.33
2018-03-24T23:37:35.896Z,26.35
2018-03-24T23:40:02.420Z,25.35
2018-03-24T23:42:28.863Z,24.40
2018-03-24T23:44:55.298Z,24.67
2018-03-24T23:47:21.762Z,26.02
2018-03-24T23:49:48.216Z,26.17
2018-03-24T23:52:14.741Z,26.50
2018-03-24T23:54:41.882Z,26.00
2018-03-24T23:57:08.291Z,24.37
2018-03-24T23:59:34.710Z,24.45
